createdAt,value
2016-12-28T00:00:44.936Z,0
2016-12-28T00:01:55.667Z,0
2016-12-28T00:03:06.385Z,0
2016-12-28T00:04:17.106Z,0
2016-12-28T00:05:27.827Z,0
2016-12-28T00:06:38.548Z,0
2016-12-28T00:07:49.262Z,0
2016-12-28T00:08:59.990Z,0
2016-12-28T00:10:10.739Z,0
2016-12-28T00:11:21.453Z,0
2016-12-28T00:12:32.182Z,0
2016-12-28T00:13:42.946Z,0
2016-12-28T00:14:53.677Z,0
2016-12-28T00:16:04.397Z,0
2016-12-28T00:17:15.133Z,0
2016-12-28T00:18:25.858Z,0
2016-12-28T00:19:36.583Z,0
2016-12-28T00:20:47.329Z,0
2016-12-28T00:21:58.046Z,0
2016-12-28T00:23:08.767Z,0
2016-12-28T00:24:19.513Z,0
2016-12-28T00:25:30.210Z,0
2016-12-28T00:26:40.948Z,0
2016-12-28T00:27:51.676Z,0
2016-12-28T00:29:02.419Z,0
2016-12-28T00:30:13.127Z,0
2016-12-28T00:31:24.165Z,0
2016-12-28T00:32:34.891Z,0
2016-12-28T00:33:45.674Z,0
2016-12-28T00:34:56.405Z,0
2016-12-28T00:36:07.144Z,0
2016-12-28T00:37:17.872Z,0
2016-12-28T00:38:28.596Z,0
2016-12-28T00:39:39.340Z,0
2016-12-28T00:40:50.088Z,0
2016-12-28T00:42:00.820Z,0
2016-12-28T00:43:11.553Z,0
2016-12-28T00:44:22.299Z,0
2016-12-28T00:45:33.350Z,0
2016-12-28T00:46:44.080Z,0
2016-12-28T00:47:55.089Z,0
2016-12-28T00:49:05.832Z,0
2016-12-28T00:50:16.547Z,0
2016-12-28T00:51:27.276Z,0
2016-12-28T00:52:37.992Z,0
2016-12-28T00:53:48.706Z,0
2016-12-28T00:54:59.438Z,0
2016-12-28T00:56:10.164Z,0
2016-12-28T00:57:20.879Z,0
2016-12-28T00:58:31.629Z,0
2016-12-28T00:59:42.353Z,0
2016-12-28T01:00:53.065Z,0
2016-12-28T01:02:03.810Z,0
2016-12-28T01:03:14.836Z,0
2016-12-28T01:04:25.578Z,0
2016-12-28T01:05:36.302Z,0
2016-12-28T01:06:47.044Z,0
2016-12-28T01:07:57.790Z,0
2016-12-28T01:09:08.537Z,0
2016-12-28T01:10:19.263Z,0
2016-12-28T01:11:30.003Z,0
2016-12-28T01:12:40.753Z,0
2016-12-28T01:13:51.500Z,0
2016-12-28T01:15:02.238Z,0
2016-12-28T01:16:12.993Z,0
2016-12-28T01:17:23.754Z,0
2016-12-28T01:18:34.800Z,0
2016-12-28T01:19:45.504Z,0
2016-12-28T01:20:56.250Z,0
2016-12-28T01:22:07.017Z,0
2016-12-28T01:23:17.739Z,0
2016-12-28T01:24:28.439Z,0
2016-12-28T01:25:39.183Z,0
2016-12-28T01:26:49.902Z,0
2016-12-28T01:28:00.623Z,0
2016-12-28T01:29:11.343Z,0
2016-12-28T01:30:22.067Z,0
2016-12-28T01:31:32.810Z,0
2016-12-28T01:32:43.510Z,0
2016-12-28T01:33:54.233Z,0
2016-12-28T01:35:04.951Z,0
2016-12-28T01:36:15.697Z,0
2016-12-28T01:37:26.440Z,0
2016-12-28T01:38:37.161Z,0
2016-12-28T01:39:47.882Z,0
2016-12-28T01:40:58.628Z,0
2016-12-28T01:42:09.357Z,0
2016-12-28T01:43:20.120Z,0
2016-12-28T01:44:30.845Z,0
2016-12-28T01:45:41.587Z,0
2016-12-28T01:46:52.308Z,0
2016-12-28T01:48:03.029Z,0
2016-12-28T01:49:13.750Z,0
2016-12-28T01:50:24.500Z,0
2016-12-28T01:51:35.222Z,0
2016-12-28T01:52:45.966Z,0
2016-12-28T01:53:57.013Z,0
2016-12-28T01:55:07.738Z,0
2016-12-28T01:56:18.494Z,0
2016-12-28T01:57:29.197Z,0
2016-12-28T01:58:39.922Z,0
2016-12-28T01:59:50.640Z,0
2016-12-28T02:01:01.359Z,0
2016-12-28T02:02:12.080Z,0
2016-12-28T02:03:22.805Z,0
2016-12-28T02:04:33.527Z,0
2016-12-28T02:05:44.250Z,0
2016-12-28T02:06:54.992Z,0
2016-12-28T02:08:05.735Z,0
2016-12-28T02:09:16.460Z,0
2016-12-28T02:10:27.202Z,0
2016-12-28T02:11:37.922Z,0
2016-12-28T02:12:48.639Z,0
2016-12-28T02:13:59.392Z,0
2016-12-28T02:15:10.140Z,0
2016-12-28T02:16:20.881Z,0
2016-12-28T02:17:31.602Z,0
2016-12-28T02:18:42.326Z,0
2016-12-28T02:19:53.048Z,0
2016-12-28T02:21:03.790Z,0
2016-12-28T02:22:14.535Z,0
2016-12-28T02:23:25.262Z,0
2016-12-28T02:24:36.006Z,0
2016-12-28T02:25:46.729Z,0
2016-12-28T02:26:57.445Z,0
2016-12-28T02:28:08.166Z,0
2016-12-28T02:29:18.867Z,0
2016-12-28T02:30:29.585Z,0
2016-12-28T02:31:40.632Z,0
2016-12-28T02:32:51.374Z,0
2016-12-28T02:34:02.120Z,0
2016-12-28T02:35:12.818Z,0
2016-12-28T02:36:23.565Z,0
2016-12-28T02:37:34.260Z,0
2016-12-28T02:38:44.982Z,0
2016-12-28T02:39:55.708Z,0
2016-12-28T02:41:06.461Z,0
2016-12-28T02:42:17.219Z,0
2016-12-28T02:43:27.966Z,0
2016-12-28T02:44:38.706Z,0
2016-12-28T02:45:49.405Z,0
2016-12-28T02:47:00.127Z,0
2016-12-28T02:48:10.865Z,0
2016-12-28T02:49:21.592Z,0
2016-12-28T02:50:32.311Z,0
2016-12-28T02:51:43.035Z,0
2016-12-28T02:52:53.798Z,0
2016-12-28T02:54:04.540Z,0
2016-12-28T02:55:15.273Z,0
2016-12-28T02:56:25.994Z,0
2016-12-28T02:57:36.739Z,0
2016-12-28T02:58:47.484Z,0
2016-12-28T02:59:58.201Z,0
2016-12-28T03:01:08.933Z,0
2016-12-28T03:02:19.668Z,0
2016-12-28T03:03:30.390Z,0
2016-12-28T03:04:41.086Z,0
2016-12-28T03:05:51.809Z,0
2016-12-28T03:07:02.556Z,0
2016-12-28T03:08:13.276Z,0
2016-12-28T03:09:24.046Z,0
2016-12-28T03:10:34.770Z,0
2016-12-28T03:11:45.514Z,0
2016-12-28T03:12:56.232Z,0
2016-12-28T03:14:06.973Z,0
2016-12-28T03:15:17.697Z,0
2016-12-28T03:16:28.421Z,0
2016-12-28T03:17:39.143Z,0
2016-12-28T03:18:49.884Z,0
2016-12-28T03:20:00.623Z,0
2016-12-28T03:21:11.329Z,0
2016-12-28T03:22:22.072Z,0
2016-12-28T03:23:32.797Z,0
2016-12-28T03:24:43.560Z,0
2016-12-28T03:25:54.268Z,0
2016-12-28T03:27:05.010Z,0
2016-12-28T03:28:15.751Z,0
2016-12-28T03:29:26.476Z,0
2016-12-28T03:30:37.194Z,0
2016-12-28T03:31:47.894Z,0
2016-12-28T03:32:58.614Z,0
2016-12-28T03:34:09.331Z,0
2016-12-28T03:35:20.032Z,0
2016-12-28T03:36:30.777Z,0
2016-12-28T03:37:41.518Z,0
2016-12-28T03:38:52.243Z,0
2016-12-28T03:40:02.963Z,0
2016-12-28T03:41:14.009Z,0
2016-12-28T03:42:24.780Z,0
2016-12-28T03:43:35.543Z,0
2016-12-28T03:44:46.262Z,0
2016-12-28T03:45:57.269Z,0
2016-12-28T03:47:08.020Z,0
2016-12-28T03:48:18.736Z,0
2016-12-28T03:49:29.481Z,0
2016-12-28T03:50:40.202Z,0
2016-12-28T03:51:50.940Z,0
2016-12-28T03:53:01.669Z,0
2016-12-28T03:54:12.390Z,0
2016-12-28T03:55:23.175Z,0
2016-12-28T03:56:33.929Z,0
2016-12-28T03:57:44.631Z,0
2016-12-28T03:58:55.364Z,0
2016-12-28T04:00:06.095Z,0
2016-12-28T04:01:16.822Z,0
2016-12-28T04:02:27.538Z,0
2016-12-28T04:03:38.272Z,0
2016-12-28T04:04:49.001Z,0
2016-12-28T04:05:59.725Z,0
2016-12-28T04:07:10.471Z,0
2016-12-28T04:08:21.195Z,0
2016-12-28T04:09:31.937Z,0
2016-12-28T04:10:42.701Z,0
2016-12-28T04:11:53.479Z,0
2016-12-28T04:13:04.199Z,0
2016-12-28T04:14:14.922Z,0
2016-12-28T04:15:25.646Z,0
2016-12-28T04:16:36.390Z,0
2016-12-28T04:17:47.124Z,0
2016-12-28T04:18:57.857Z,0
2016-12-28T04:20:08.602Z,0
2016-12-28T04:21:19.323Z,0
2016-12-28T04:22:30.070Z,0
2016-12-28T04:23:40.815Z,0
2016-12-28T04:24:51.550Z,0
2016-12-28T04:26:02.282Z,0
2016-12-28T04:27:13.016Z,0
2016-12-28T04:28:23.771Z,0
2016-12-28T04:29:34.795Z,0
2016-12-28T04:30:45.512Z,0
2016-12-28T04:31:56.237Z,0
2016-12-28T04:33:06.989Z,0
2016-12-28T04:34:17.745Z,0
2016-12-28T04:35:28.447Z,0
2016-12-28T04:36:39.172Z,0
2016-12-28T04:37:49.896Z,0
2016-12-28T04:39:00.634Z,0
2016-12-28T04:40:11.333Z,0
2016-12-28T04:41:22.080Z,0
2016-12-28T04:42:32.825Z,0
2016-12-28T04:43:43.547Z,0
2016-12-28T04:44:54.289Z,0
2016-12-28T04:46:05.010Z,0
2016-12-28T04:47:15.740Z,0
2016-12-28T04:48:26.478Z,0
2016-12-28T04:49:37.194Z,0
2016-12-28T04:50:47.925Z,0
2016-12-28T04:51:58.658Z,0
2016-12-28T04:53:09.390Z,0
2016-12-28T04:54:20.133Z,0
2016-12-28T04:55:30.871Z,0
2016-12-28T04:56:41.591Z,0
2016-12-28T04:57:52.344Z,0
2016-12-28T04:59:03.071Z,0
2016-12-28T05:00:13.817Z,0
2016-12-28T05:01:24.561Z,0
2016-12-28T05:02:35.289Z,0
2016-12-28T05:03:46.348Z,0
2016-12-28T05:04:57.075Z,0
2016-12-28T05:06:07.800Z,0
2016-12-28T05:07:18.538Z,0
2016-12-28T05:08:29.252Z,0
2016-12-28T05:09:39.959Z,0
2016-12-28T05:10:50.696Z,0
2016-12-28T05:12:01.423Z,0
2016-12-28T05:13:12.152Z,0
2016-12-28T05:14:22.890Z,0
2016-12-28T05:15:33.628Z,0
2016-12-28T05:16:44.357Z,0
2016-12-28T05:17:55.081Z,0
2016-12-28T05:19:05.806Z,0
2016-12-28T05:20:16.521Z,0
2016-12-28T05:21:27.260Z,0
2016-12-28T05:22:37.993Z,0
2016-12-28T05:23:48.728Z,0
2016-12-28T05:24:59.456Z,0
2016-12-28T05:26:10.181Z,0
2016-12-28T05:27:20.923Z,0
2016-12-28T05:28:31.646Z,0
2016-12-28T05:29:42.374Z,0
2016-12-28T05:30:53.116Z,0
2016-12-28T05:32:03.858Z,0
2016-12-28T05:33:14.558Z,0
2016-12-28T05:34:25.305Z,0
2016-12-28T05:35:36.056Z,0
2016-12-28T05:36:46.777Z,0
2016-12-28T05:37:57.790Z,0
2016-12-28T05:39:08.511Z,0
2016-12-28T05:40:19.236Z,0
2016-12-28T05:41:29.956Z,0
2016-12-28T05:42:40.681Z,0
2016-12-28T05:43:51.395Z,0
2016-12-28T05:45:02.117Z,0
2016-12-28T05:46:13.113Z,0
2016-12-28T05:47:23.837Z,0
2016-12-28T05:48:34.556Z,0
2016-12-28T05:49:45.278Z,0
2016-12-28T05:50:56.004Z,0
2016-12-28T05:52:07.037Z,0
2016-12-28T05:53:17.769Z,0
2016-12-28T05:54:28.479Z,0
2016-12-28T05:55:39.213Z,0
2016-12-28T05:56:49.955Z,0
2016-12-28T05:58:00.697Z,0
2016-12-28T05:59:11.451Z,0
2016-12-28T06:00:22.197Z,0
2016-12-28T06:01:32.940Z,0
2016-12-28T06:02:43.644Z,0
2016-12-28T06:03:54.403Z,0
2016-12-28T06:05:05.135Z,0
2016-12-28T06:06:15.854Z,0
2016-12-28T06:07:26.596Z,0
2016-12-28T06:08:37.325Z,0
2016-12-28T06:09:48.106Z,0
2016-12-28T06:10:58.836Z,0
2016-12-28T06:12:09.559Z,0
2016-12-28T06:13:20.579Z,0
2016-12-28T06:14:31.302Z,0
2016-12-28T06:15:42.041Z,0
2016-12-28T06:16:52.768Z,0
2016-12-28T06:18:03.488Z,0
2016-12-28T06:19:14.216Z,0
2016-12-28T06:20:24.959Z,0
2016-12-28T06:21:35.702Z,0
2016-12-28T06:22:46.455Z,0
2016-12-28T06:23:57.197Z,0
2016-12-28T06:25:07.948Z,0
2016-12-28T06:26:18.665Z,0
2016-12-28T06:27:29.407Z,0
2016-12-28T06:28:40.129Z,0
2016-12-28T06:29:50.854Z,0
2016-12-28T06:31:01.572Z,0
2016-12-28T06:32:12.271Z,0
2016-12-28T06:33:23.017Z,0
2016-12-28T06:34:33.760Z,0
2016-12-28T06:35:44.480Z,0
2016-12-28T06:36:55.202Z,0
2016-12-28T06:38:05.940Z,0
2016-12-28T06:39:16.669Z,4
2016-12-28T06:40:27.410Z,4
2016-12-28T06:41:38.141Z,0
2016-12-28T06:42:48.883Z,0
2016-12-28T06:43:59.606Z,4
2016-12-28T06:45:10.327Z,4
2016-12-28T06:46:21.074Z,4
2016-12-28T06:47:31.808Z,4
2016-12-28T06:48:42.569Z,4
2016-12-28T06:49:53.314Z,4
2016-12-28T06:51:04.030Z,4
2016-12-28T06:52:14.752Z,8
2016-12-28T06:53:25.451Z,8
2016-12-28T06:54:36.191Z,8
2016-12-28T06:55:47.212Z,16
2016-12-28T06:56:57.908Z,12
2016-12-28T06:58:08.629Z,16
2016-12-28T06:59:19.355Z,16
2016-12-28T07:00:30.097Z,20
2016-12-28T07:01:40.822Z,28
2016-12-28T07:02:51.563Z,36
2016-12-28T07:04:02.264Z,40
2016-12-28T07:05:12.983Z,44
2016-12-28T07:06:23.722Z,56
2016-12-28T07:07:34.447Z,64
2016-12-28T07:08:45.175Z,72
2016-12-28T07:09:55.893Z,76
2016-12-28T07:11:06.636Z,96
2016-12-28T07:12:17.361Z,104
2016-12-28T07:13:28.081Z,128
2016-12-28T07:14:38.824Z,164
2016-12-28T07:15:49.546Z,172
2016-12-28T07:17:00.292Z,188
2016-12-28T07:18:11.011Z,196
2016-12-28T07:19:21.756Z,200
2016-12-28T07:20:32.509Z,172
2016-12-28T07:21:43.227Z,196
2016-12-28T07:22:53.972Z,208
2016-12-28T07:24:04.695Z,220
2016-12-28T07:25:15.440Z,264
2016-12-28T07:26:26.162Z,308
2016-12-28T07:27:37.178Z,308
2016-12-28T07:28:47.895Z,400
2016-12-28T07:29:58.596Z,444
2016-12-28T07:31:09.346Z,484
2016-12-28T07:32:20.067Z,484
2016-12-28T07:33:30.786Z,560
2016-12-28T07:34:41.533Z,548
2016-12-28T07:35:52.254Z,680
2016-12-28T07:37:02.996Z,736
2016-12-28T07:38:13.708Z,816
2016-12-28T07:39:24.423Z,812
2016-12-28T07:40:35.162Z,824
2016-12-28T07:41:45.859Z,1012
2016-12-28T07:42:56.604Z,1068
2016-12-28T07:44:07.346Z,1128
2016-12-28T07:45:18.347Z,1128
2016-12-28T07:46:29.064Z,1112
2016-12-28T07:47:39.792Z,1236
2016-12-28T07:48:50.507Z,1344
2016-12-28T07:50:01.228Z,1436
2016-12-28T07:51:12.275Z,1568
2016-12-28T07:52:22.997Z,1428
2016-12-28T07:53:33.735Z,1316
2016-12-28T07:54:44.460Z,1384
2016-12-28T07:55:55.185Z,1204
2016-12-28T07:57:05.926Z,1272
2016-12-28T07:58:16.640Z,1412
2016-12-28T07:59:27.371Z,1368
2016-12-28T08:00:38.117Z,1524
2016-12-28T08:01:48.838Z,1208
2016-12-28T08:02:59.583Z,1504
2016-12-28T08:04:10.301Z,1560
2016-12-28T08:05:21.001Z,1388
2016-12-28T08:06:31.747Z,1484
2016-12-28T08:07:42.492Z,1704
2016-12-28T08:08:53.227Z,1440
2016-12-28T08:10:04.001Z,1276
2016-12-28T08:11:14.726Z,1192
2016-12-28T08:12:25.422Z,1268
2016-12-28T08:13:36.429Z,1332
2016-12-28T08:14:47.167Z,1480
2016-12-28T08:15:57.887Z,1420
2016-12-28T08:17:08.623Z,1308
2016-12-28T08:18:19.353Z,1632
2016-12-28T08:19:30.064Z,1628
2016-12-28T08:20:40.817Z,1732
2016-12-28T08:21:51.543Z,1476
2016-12-28T08:23:02.260Z,1460
2016-12-28T08:24:12.980Z,1364
2016-12-28T08:25:23.730Z,1524
2016-12-28T08:26:34.450Z,1560
2016-12-28T08:27:45.214Z,1220
2016-12-28T08:28:55.938Z,1432
2016-12-28T08:30:06.662Z,2260
2016-12-28T08:31:17.379Z,2540
2016-12-28T08:32:28.075Z,2612
2016-12-28T08:33:38.799Z,3032
2016-12-28T08:34:49.526Z,2808
2016-12-28T08:36:00.266Z,2200
2016-12-28T08:37:11.008Z,2136
2016-12-28T08:38:21.729Z,2128
2016-12-28T08:39:32.428Z,2544
2016-12-28T08:40:43.166Z,3140
2016-12-28T08:41:53.867Z,3220
2016-12-28T08:43:04.565Z,2908
2016-12-28T08:44:15.299Z,2816
2016-12-28T08:45:26.032Z,2664
2016-12-28T08:46:36.727Z,2396
2016-12-28T08:47:47.447Z,2396
2016-12-28T08:48:58.190Z,2356
2016-12-28T08:50:08.891Z,2284
2016-12-28T08:51:19.610Z,2736
2016-12-28T08:52:30.337Z,2604
2016-12-28T08:53:41.077Z,2284
2016-12-28T08:54:51.823Z,2656
2016-12-28T08:56:02.565Z,3024
2016-12-28T08:57:13.311Z,4060
2016-12-28T08:58:24.035Z,4308
2016-12-28T08:59:34.776Z,4652
2016-12-28T09:00:45.500Z,4600
2016-12-28T09:01:56.243Z,4624
2016-12-28T09:03:06.963Z,4464
2016-12-28T09:04:17.689Z,4264
2016-12-28T09:05:28.430Z,4124
2016-12-28T09:06:39.174Z,3812
2016-12-28T09:07:50.189Z,3568
2016-12-28T09:09:00.921Z,3552
2016-12-28T09:10:11.980Z,4056
2016-12-28T09:11:22.713Z,3896
2016-12-28T09:12:33.484Z,3056
2016-12-28T09:13:44.227Z,3096
2016-12-28T09:14:54.970Z,3136
2016-12-28T09:16:05.692Z,3508
2016-12-28T09:17:16.412Z,3680
2016-12-28T09:18:27.158Z,4200
2016-12-28T09:19:37.900Z,4868
2016-12-28T09:20:48.624Z,4272
2016-12-28T09:21:59.349Z,4480
2016-12-28T09:23:10.094Z,3904
2016-12-28T09:24:20.815Z,3028
2016-12-28T09:25:31.537Z,3592
2016-12-28T09:26:42.260Z,4492
2016-12-28T09:27:53.022Z,4500
2016-12-28T09:29:03.745Z,4244
2016-12-28T09:30:14.466Z,4180
2016-12-28T09:31:25.207Z,3712
2016-12-28T09:32:35.932Z,4052
2016-12-28T09:33:46.695Z,3796
2016-12-28T09:34:57.429Z,3900
2016-12-28T09:36:08.151Z,4036
2016-12-28T09:37:18.893Z,3640
2016-12-28T09:38:29.635Z,4928
2016-12-28T09:39:40.358Z,4952
2016-12-28T09:40:51.103Z,4908
2016-12-28T09:42:01.827Z,5396
2016-12-28T09:43:12.575Z,5192
2016-12-28T09:44:23.318Z,5600
2016-12-28T09:45:34.055Z,5604
2016-12-28T09:46:44.766Z,5704
2016-12-28T09:47:55.510Z,4820
2016-12-28T09:49:06.248Z,4996
2016-12-28T09:50:16.990Z,5380
2016-12-28T09:51:27.740Z,5012
2016-12-28T09:52:38.464Z,4508
2016-12-28T09:53:49.200Z,3560
2016-12-28T09:54:59.933Z,4016
2016-12-28T09:56:10.649Z,4348
2016-12-28T09:57:21.353Z,4284
2016-12-28T09:58:32.091Z,3968
2016-12-28T09:59:42.816Z,3960
2016-12-28T10:00:53.565Z,3040
2016-12-28T10:02:04.346Z,3400
2016-12-28T10:03:15.080Z,3888
2016-12-28T10:04:25.822Z,4232
2016-12-28T10:05:36.567Z,4816
2016-12-28T10:06:47.291Z,5740
2016-12-28T10:07:58.013Z,5044
2016-12-28T10:09:08.756Z,5100
2016-12-28T10:10:19.502Z,6160
2016-12-28T10:11:30.240Z,5768
2016-12-28T10:12:40.972Z,5576
2016-12-28T10:13:51.735Z,6084
2016-12-28T10:15:02.452Z,6508
2016-12-28T10:16:13.486Z,6104
2016-12-28T10:17:24.228Z,5748
2016-12-28T10:18:34.942Z,4480
2016-12-28T10:19:45.691Z,5560
2016-12-28T10:20:56.421Z,5280
2016-12-28T10:22:07.146Z,5468
2016-12-28T10:23:17.901Z,5072
2016-12-28T10:24:28.633Z,4348
2016-12-28T10:25:39.372Z,4824
2016-12-28T10:26:50.101Z,4400
2016-12-28T10:28:00.835Z,5380
2016-12-28T10:29:11.585Z,5000
2016-12-28T10:30:22.339Z,3880
2016-12-28T10:31:33.074Z,3596
2016-12-28T10:32:43.805Z,3592
2016-12-28T10:33:54.547Z,4504
2016-12-28T10:35:05.273Z,4332
2016-12-28T10:36:16.038Z,4708
2016-12-28T10:37:26.785Z,4696
2016-12-28T10:38:37.481Z,4456
2016-12-28T10:39:48.204Z,2748
2016-12-28T10:40:58.953Z,2832
2016-12-28T10:42:09.695Z,2624
2016-12-28T10:43:20.416Z,3484
2016-12-28T10:44:31.139Z,4128
2016-12-28T10:45:41.839Z,4160
2016-12-28T10:46:52.579Z,3404
2016-12-28T10:48:03.321Z,3752
2016-12-28T10:49:14.046Z,3616
2016-12-28T10:50:24.743Z,4152
2016-12-28T10:51:35.464Z,3928
2016-12-28T10:52:46.184Z,4100
2016-12-28T10:53:56.909Z,3884
2016-12-28T10:55:07.652Z,5436
2016-12-28T10:56:18.402Z,4596
2016-12-28T10:57:29.149Z,3948
2016-12-28T10:58:39.894Z,3316
2016-12-28T10:59:50.611Z,3320
2016-12-28T11:01:01.336Z,3268
2016-12-28T11:02:12.078Z,3564
2016-12-28T11:03:22.803Z,4416
2016-12-28T11:04:33.545Z,5252
2016-12-28T11:05:44.245Z,4768
2016-12-28T11:06:54.983Z,3884
2016-12-28T11:08:05.684Z,4184
2016-12-28T11:09:16.432Z,5908
2016-12-28T11:10:27.169Z,4652
2016-12-28T11:11:38.218Z,4732
2016-12-28T11:12:48.943Z,4656
2016-12-28T11:13:59.967Z,4336
2016-12-28T11:15:10.711Z,3312
2016-12-28T11:16:21.412Z,4008
2016-12-28T11:17:32.182Z,5256
2016-12-28T11:18:42.928Z,5104
2016-12-28T11:19:53.650Z,4324
2016-12-28T11:21:04.371Z,3988
2016-12-28T11:22:15.087Z,5228
2016-12-28T11:23:25.812Z,7396
2016-12-28T11:24:36.514Z,6952
2016-12-28T11:25:47.252Z,6756
2016-12-28T11:26:57.995Z,5668
2016-12-28T11:28:08.722Z,5976
2016-12-28T11:29:19.437Z,5720
2016-12-28T11:30:30.187Z,3948
2016-12-28T11:31:40.912Z,3784
2016-12-28T11:32:51.655Z,2888
2016-12-28T11:34:02.393Z,4844
2016-12-28T11:35:13.120Z,4256
2016-12-28T11:36:23.822Z,4496
2016-12-28T11:37:34.550Z,3944
2016-12-28T11:38:45.292Z,4216
2016-12-28T11:39:56.026Z,3792
2016-12-28T11:41:06.749Z,5696
2016-12-28T11:42:17.511Z,3620
2016-12-28T11:43:28.269Z,4596
2016-12-28T11:44:39.004Z,4720
2016-12-28T11:45:49.741Z,4684
2016-12-28T11:47:00.463Z,4640
2016-12-28T11:48:11.187Z,5816
2016-12-28T11:49:21.934Z,5272
2016-12-28T11:50:32.668Z,3672
2016-12-28T11:51:43.407Z,4460
2016-12-28T11:52:54.136Z,5944
2016-12-28T11:54:04.866Z,7140
2016-12-28T11:55:15.615Z,5560
2016-12-28T11:56:26.333Z,4964
2016-12-28T11:57:37.058Z,6140
2016-12-28T11:58:47.822Z,5204
2016-12-28T11:59:58.566Z,5356
2016-12-28T12:01:09.697Z,5244
2016-12-28T12:02:20.474Z,5704
2016-12-28T12:03:31.214Z,4688
2016-12-28T12:04:41.965Z,4060
2016-12-28T12:05:52.704Z,4836
2016-12-28T12:07:03.450Z,5872
2016-12-28T12:08:14.145Z,6132
2016-12-28T12:09:24.845Z,4940
2016-12-28T12:10:35.591Z,5208
2016-12-28T12:11:46.309Z,4808
2016-12-28T12:12:57.027Z,5268
2016-12-28T12:14:07.752Z,5428
2016-12-28T12:15:18.473Z,6976
2016-12-28T12:16:29.199Z,7008
2016-12-28T12:17:39.965Z,6040
2016-12-28T12:18:50.691Z,5572
2016-12-28T12:20:01.425Z,5396
2016-12-28T12:21:12.179Z,6276
2016-12-28T12:22:22.920Z,6176
2016-12-28T12:23:33.622Z,5400
2016-12-28T12:24:44.343Z,5512
2016-12-28T12:25:55.068Z,5760
2016-12-28T12:27:05.810Z,5184
2016-12-28T12:28:16.531Z,5544
2016-12-28T12:29:27.246Z,3828
2016-12-28T12:30:37.996Z,3812
2016-12-28T12:31:48.720Z,4244
2016-12-28T12:32:59.442Z,4120
2016-12-28T12:34:10.166Z,4692
2016-12-28T12:35:20.912Z,3868
2016-12-28T12:36:31.648Z,5088
2016-12-28T12:37:42.381Z,4468
2016-12-28T12:38:53.127Z,3980
2016-12-28T12:40:03.848Z,4560
2016-12-28T12:41:14.590Z,4372
2016-12-28T12:42:25.312Z,3532
2016-12-28T12:43:36.008Z,2968
2016-12-28T12:44:46.729Z,2984
2016-12-28T12:45:57.450Z,2952
2016-12-28T12:47:08.175Z,2532
2016-12-28T12:48:18.893Z,2376
2016-12-28T12:49:29.620Z,2612
2016-12-28T12:50:40.360Z,3000
2016-12-28T12:51:51.084Z,3144
2016-12-28T12:53:01.829Z,3872
2016-12-28T12:54:12.559Z,4088
2016-12-28T12:55:23.295Z,3844
2016-12-28T12:56:34.012Z,3640
2016-12-28T12:57:44.734Z,3936
2016-12-28T12:58:55.462Z,4124
2016-12-28T13:00:06.184Z,4180
2016-12-28T13:01:16.933Z,4360
2016-12-28T13:02:27.690Z,4500
2016-12-28T13:03:38.419Z,4528
2016-12-28T13:04:49.122Z,4612
2016-12-28T13:05:59.874Z,3264
2016-12-28T13:07:10.633Z,3816
2016-12-28T13:08:21.353Z,3828
2016-12-28T13:09:32.081Z,2924
2016-12-28T13:10:42.820Z,2616
2016-12-28T13:11:53.572Z,2704
2016-12-28T13:13:04.341Z,2536
2016-12-28T13:14:15.079Z,3284
2016-12-28T13:15:25.808Z,3812
2016-12-28T13:16:36.553Z,3476
2016-12-28T13:17:47.300Z,3700
2016-12-28T13:18:58.021Z,3352
2016-12-28T13:20:08.767Z,3636
2016-12-28T13:21:19.512Z,3628
2016-12-28T13:22:30.255Z,3896
2016-12-28T13:23:40.980Z,3708
2016-12-28T13:24:51.726Z,3900
2016-12-28T13:26:02.468Z,3884
2016-12-28T13:27:13.189Z,3520
2016-12-28T13:28:23.930Z,3332
2016-12-28T13:29:34.656Z,3052
2016-12-28T13:30:45.381Z,2780
2016-12-28T13:31:56.098Z,2772
2016-12-28T13:33:06.818Z,2984
2016-12-28T13:34:17.515Z,3184
2016-12-28T13:35:28.243Z,3172
2016-12-28T13:36:38.982Z,3096
2016-12-28T13:37:49.731Z,3264
2016-12-28T13:39:00.480Z,3272
2016-12-28T13:40:11.225Z,3384
2016-12-28T13:41:21.969Z,3876
2016-12-28T13:42:32.712Z,3952
2016-12-28T13:43:43.454Z,3872
2016-12-28T13:44:54.180Z,3612
2016-12-28T13:46:04.904Z,3384
2016-12-28T13:47:15.667Z,3120
2016-12-28T13:48:26.391Z,3040
2016-12-28T13:49:37.490Z,2772
2016-12-28T13:50:48.209Z,2836
2016-12-28T13:51:58.926Z,2976
2016-12-28T13:53:09.655Z,2920
2016-12-28T13:54:20.418Z,3164
2016-12-28T13:55:31.142Z,3380
2016-12-28T13:56:41.863Z,3500
2016-12-28T13:57:52.592Z,3464
2016-12-28T13:59:03.330Z,3364
2016-12-28T14:00:14.055Z,3056
2016-12-28T14:01:24.825Z,2984
2016-12-28T14:02:35.548Z,2896
2016-12-28T14:03:46.292Z,2748
2016-12-28T14:04:57.016Z,2588
2016-12-28T14:06:07.782Z,2544
2016-12-28T14:07:18.504Z,2480
2016-12-28T14:08:29.223Z,2324
2016-12-28T14:09:39.973Z,2124
2016-12-28T14:10:50.721Z,2072
2016-12-28T14:12:01.462Z,2168
2016-12-28T14:13:12.190Z,2312
2016-12-28T14:14:22.927Z,2324
2016-12-28T14:15:33.625Z,2292
2016-12-28T14:16:44.372Z,2288
2016-12-28T14:17:55.093Z,2124
2016-12-28T14:19:05.846Z,2004
2016-12-28T14:20:16.559Z,1960
2016-12-28T14:21:27.282Z,1788
2016-12-28T14:22:38.028Z,1692
2016-12-28T14:23:48.777Z,1416
2016-12-28T14:24:59.525Z,1664
2016-12-28T14:26:10.262Z,1624
2016-12-28T14:27:20.986Z,1624
2016-12-28T14:28:31.731Z,1604
2016-12-28T14:29:42.473Z,1552
2016-12-28T14:30:53.219Z,1420
2016-12-28T14:32:03.970Z,1248
2016-12-28T14:33:14.713Z,1028
2016-12-28T14:34:25.433Z,892
2016-12-28T14:35:36.171Z,780
2016-12-28T14:36:46.899Z,688
2016-12-28T14:37:57.625Z,600
2016-12-28T14:39:08.369Z,540
2016-12-28T14:40:19.071Z,496
2016-12-28T14:41:30.188Z,460
2016-12-28T14:42:40.929Z,428
2016-12-28T14:43:51.699Z,420
2016-12-28T14:45:02.420Z,404
2016-12-28T14:46:13.142Z,372
2016-12-28T14:47:23.882Z,344
2016-12-28T14:48:34.626Z,292
2016-12-28T14:49:45.350Z,244
2016-12-28T14:50:56.099Z,284
2016-12-28T14:52:06.822Z,300
2016-12-28T14:53:17.542Z,292
2016-12-28T14:54:28.267Z,288
2016-12-28T14:55:39.015Z,276
2016-12-28T14:56:49.755Z,256
2016-12-28T14:58:00.481Z,224
2016-12-28T14:59:11.214Z,196
2016-12-28T15:00:21.944Z,164
2016-12-28T15:01:32.655Z,152
2016-12-28T15:02:43.388Z,140
2016-12-28T15:03:54.154Z,124
2016-12-28T15:05:04.881Z,116
2016-12-28T15:06:15.603Z,108
2016-12-28T15:07:26.346Z,92
2016-12-28T15:08:37.095Z,80
2016-12-28T15:09:47.851Z,84
2016-12-28T15:10:58.585Z,76
2016-12-28T15:12:09.329Z,68
2016-12-28T15:13:20.075Z,60
2016-12-28T15:14:30.801Z,52
2016-12-28T15:15:41.522Z,48
2016-12-28T15:16:52.259Z,36
2016-12-28T15:18:02.987Z,32
2016-12-28T15:19:13.758Z,24
2016-12-28T15:20:24.519Z,24
2016-12-28T15:21:35.265Z,20
2016-12-28T15:22:45.992Z,16
2016-12-28T15:23:56.738Z,16
2016-12-28T15:25:07.457Z,16
2016-12-28T15:26:18.176Z,12
2016-12-28T15:27:28.901Z,8
2016-12-28T15:28:39.623Z,8
2016-12-28T15:29:50.346Z,4
2016-12-28T15:31:01.089Z,4
2016-12-28T15:32:11.856Z,4
2016-12-28T15:33:22.582Z,4
2016-12-28T15:34:33.320Z,4
2016-12-28T15:35:44.077Z,0
2016-12-28T15:36:54.802Z,0
2016-12-28T15:38:05.536Z,0
2016-12-28T15:39:16.261Z,0
2016-12-28T15:40:27.003Z,0
2016-12-28T15:41:37.753Z,0
2016-12-28T15:42:48.498Z,0
2016-12-28T15:43:59.244Z,0
2016-12-28T15:45:09.991Z,0
2016-12-28T15:46:20.712Z,0
2016-12-28T15:47:31.432Z,0
2016-12-28T15:48:42.179Z,0
2016-12-28T15:49:52.898Z,0
2016-12-28T15:51:03.670Z,0
2016-12-28T15:52:14.390Z,0
2016-12-28T15:53:25.112Z,0
2016-12-28T15:54:35.854Z,0
2016-12-28T15:55:46.583Z,0
2016-12-28T15:56:57.325Z,0
2016-12-28T15:58:08.067Z,0
2016-12-28T15:59:18.813Z,0
2016-12-28T16:00:29.587Z,0
2016-12-28T16:01:40.333Z,0
2016-12-28T16:02:51.080Z,0
2016-12-28T16:04:01.822Z,0
2016-12-28T16:05:12.542Z,0
2016-12-28T16:06:23.313Z,0
2016-12-28T16:07:34.041Z,0
2016-12-28T16:08:44.761Z,0
2016-12-28T16:09:55.476Z,0
2016-12-28T16:11:06.222Z,0
2016-12-28T16:12:16.939Z,0
2016-12-28T16:13:27.664Z,0
2016-12-28T16:14:38.389Z,0
2016-12-28T16:15:49.136Z,0
2016-12-28T16:16:59.869Z,0
2016-12-28T16:18:10.602Z,0
2016-12-28T16:19:21.386Z,0
2016-12-28T16:20:32.494Z,0
2016-12-28T16:21:43.254Z,0
2016-12-28T16:22:54.004Z,0
2016-12-28T16:24:04.735Z,0
2016-12-28T16:25:15.474Z,0
2016-12-28T16:26:26.220Z,0
2016-12-28T16:27:36.941Z,0
2016-12-28T16:28:47.662Z,0
2016-12-28T16:29:58.400Z,0
2016-12-28T16:31:09.110Z,0
2016-12-28T16:32:19.842Z,0
2016-12-28T16:33:30.549Z,0
2016-12-28T16:34:41.294Z,0